Time;durP1;ratioP1;P1;durP2;ratioP2;P2;SDS_P1;SDS_P2;PMS_P1;PMS_P2;Temp;Humidity;BMP_temperature;BMP_pressure;BME280_temperature;BME280_humidity;BME280_pressure;Samples;Min_cycle;Max_cycle;Signal;HPM_P1;HPM_P2
2023/05/16 00:00:44;;;;;;;;;;;;;;;10.66;100.00;97441.28;18561249;32;19952;-56
2023/05/16 00:10:47;;;;;;;;;;;;;;;10.44;100.00;97428.94;18572620;32;19968;-56
2023/05/16 00:20:51;;;;;;;;;;;;;;;10.30;100.00;97434.06;18571422;32;20006;-56
2023/05/16 00:30:53;;;;;;;;;;;;;;;10.26;100.00;97421.38;18557083;32;19989;-56
2023/05/16 00:40:55;;;;;;;;;;;;;;;10.20;100.00;97422.50;18570027;32;19996;-55
2023/05/16 00:50:58;;;;;;;;;;;;;;;10.06;100.00;97422.22;18569848;32;19961;-55
2023/05/16 01:01:02;;;;;;;;;;;;;;;9.92;100.00;97433.59;18568965;32;19996;-54
2023/05/16 01:11:20;;;;;;;;;;;;;;;10.00;100.00;97429.53;18568203;32;19956;-56
2023/05/16 01:21:37;;;;;;;;;;;;;;;10.07;100.00;97416.56;18567714;32;19979;-54
2023/05/16 01:31:40;;;;;;;;;;;;;;;10.08;100.00;97423.56;18567032;31;20280;-55
2023/05/16 01:41:48;;;;;;;;;;;;;;;10.09;100.00;97432.50;18566294;32;19975;-55
2023/05/16 01:51:53;;;;;;;;;;;;;;;10.19;100.00;97427.06;18565868;32;19995;-55
2023/05/16 02:01:58;;;;;;;;;;;;;;;10.23;100.00;97435.44;18565258;32;19993;-55
2023/05/16 02:12:01;;;;;;;;;;;;;;;10.22;100.00;97426.53;18564789;32;19953;-56
2023/05/16 02:22:04;;;;;;;;;;;;;;;10.19;100.00;97416.25;18563809;32;19988;-56
2023/05/16 02:32:06;;;;;;;;;;;;;;;10.19;100.00;97410.84;18548903;32;19952;-55
2023/05/16 02:42:09;;;;;;;;;;;;;;;10.16;100.00;97412.22;18562629;32;19986;-55
2023/05/16 02:52:12;;;;;;;;;;;;;;;10.17;100.00;97413.84;18562159;32;19974;-56
2023/05/16 03:02:14;;;;;;;;;;;;;;;10.13;100.00;97407.38;18562269;32;19953;-55
2023/05/16 03:12:16;;;;;;;;;;;;;;;10.18;100.00;97414.63;18534729;32;19969;-56
2023/05/16 03:22:19;;;;;;;;;;;;;;;10.26;100.00;97411.38;18547292;32;19965;-58
2023/05/16 03:32:22;;;;;;;;;;;;;;;10.34;100.00;97408.13;18560732;32;20003;-59
2023/05/16 03:42:25;;;;;;;;;;;;;;;10.40;100.00;97411.66;18570335;32;20358;-59
2023/05/16 03:52:28;;;;;;;;;;;;;;;10.49;100.00;97403.78;18573053;32;19994;-59
2023/05/16 04:02:30;;;;;;;;;;;;;;;10.56;100.00;97409.69;18572581;32;19967;-59
2023/05/16 04:12:34;;;;;;;;;;;;;;;10.63;100.00;97414.81;18557193;31;19961;-58
2023/05/16 04:22:37;;;;;;;;;;;;;;;10.62;100.00;97424.00;18571765;32;19964;-58
2023/05/16 04:32:40;;;;;;;;;;;;;;;10.63;100.00;97425.63;18570549;32;19990;-58
2023/05/16 04:42:43;;;;;;;;;;;;;;;10.69;100.00;97429.94;18569891;32;19961;-58
2023/05/16 04:52:45;;;;;;;;;;;;;;;10.76;100.00;97422.34;18554555;32;19971;-58
2023/05/16 05:02:48;;;;;;;;;;;;;;;10.76;100.00;97435.06;18555338;32;19988;-57
2023/05/16 05:12:50;;;;;;;;;;;;;;;10.76;100.00;97440.47;18568565;31;19990;-58
2023/05/16 05:22:53;;;;;;;;;;;;;;;10.79;100.00;97445.31;18553373;32;20000;-58
2023/05/16 05:32:56;;;;;;;;;;;;;;;10.80;100.00;97446.94;18567353;32;19953;-57
2023/05/16 05:42:59;;;;;;;;;;;;;;;10.80;100.00;97447.75;18566281;32;20273;-57
2023/05/16 05:53:04;;;;;;;;;;;;;;;10.80;100.00;97453.16;18565900;32;20001;-59
2023/05/16 06:03:07;;;;;;;;;;;;;;;10.75;100.00;97450.47;18564258;31;19963;-59
2023/05/16 06:13:09;;;;;;;;;;;;;;;10.75;100.00;97452.38;18564597;32;19957;-59
2023/05/16 06:23:12;;;;;;;;;;;;;;;10.68;100.00;97477.78;18564062;32;20004;-59
2023/05/16 06:33:15;;;;;;;;;;;;;;;10.61;100.00;97485.37;18548885;32;19961;-59
2023/05/16 06:43:23;;;;;;;;;;;;;;;10.64;100.00;97502.97;18548530;32;19960;-59
2023/05/16 06:53:32;;;;;;;;;;;;;;;10.72;100.00;97504.31;18562267;32;19978;-59
2023/05/16 07:03:35;;;;;;;;;;;;;;;10.78;100.00;97508.59;18547299;32;20233;-59
2023/05/16 07:13:38;;;;;;;;;;;;;;;10.87;100.00;97506.13;18547522;32;19964;-59
2023/05/16 07:23:42;;;;;;;;;;;;;;;10.96;100.00;97516.13;18561243;32;19979;-59
2023/05/16 07:33:48;;;;;;;;;;;;;;;10.93;100.00;97521.25;18560617;32;20324;-59
2023/05/16 07:43:51;;;;;;;;;;;;;;;11.04;100.00;97527.44;18560365;32;20242;-59
2023/05/16 07:53:54;;;;;;;;;;;;;;;11.17;100.00;97533.06;18545805;31;19967;-59
2023/05/16 08:03:56;;;;;;;;;;;;;;;11.24;100.00;97535.50;18546346;32;19968;-59
2023/05/16 08:14:00;;;;;;;;;;;;;;;11.32;100.00;97542.22;18559387;32;20004;-59
2023/05/16 08:24:04;;;;;;;;;;;;;;;11.16;100.00;97546.87;18548563;32;20430;-59
2023/05/16 08:34:09;;;;;;;;;;;;;;;11.01;100.00;97553.16;18570541;32;19986;-59
2023/05/16 08:44:16;;;;;;;;;;;;;;;10.93;100.00;97570.75;18569929;32;19983;-58
2023/05/16 08:54:21;;;;;;;;;;;;;;;10.85;100.00;97564.03;18555658;32;19976;-57
2023/05/16 09:04:26;;;;;;;;;;;;;;;10.79;100.00;97575.94;18554580;32;19975;-58
2023/05/16 09:14:29;;;;;;;;;;;;;;;10.89;100.00;97585.13;18568438;32;19956;-57
2023/05/16 09:24:32;;;;;;;;;;;;;;;10.83;100.00;97581.62;18567645;32;19960;-58
2023/05/16 09:34:38;;;;;;;;;;;;;;;10.81;100.00;97578.34;18566067;32;19952;-58
2023/05/16 09:44:46;;;;;;;;;;;;;;;11.01;100.00;97596.44;18552251;31;19952;-56
2023/05/16 09:54:50;;;;;;;;;;;;;;;11.09;100.00;97598.59;18566060;32;20280;-58
2023/05/16 10:04:58;;;;;;;;;;;;;;;11.20;100.00;97596.66;18551011;32;20261;-58
2023/05/16 10:15:09;;;;;;;;;;;;;;;11.34;100.00;97594.19;18550278;32;19968;-58
2023/05/16 10:25:33;;;;;;;;;;;;;;;11.56;100.00;97603.84;18550692;32;19961;-57
2023/05/16 10:35:37;;;;;;;;;;;;;;;11.47;100.00;97604.41;18563126;31;19953;-57
2023/05/16 10:45:42;;;;;;;;;;;;;;;11.37;100.00;97590.91;18548273;32;20289;-56
2023/05/16 10:55:50;;;;;;;;;;;;;;;11.24;100.00;97599.66;18548514;32;19972;-56
2023/05/16 11:06:05;;;;;;;;;;;;;;;11.02;100.00;97600.78;18562030;32;19985;-56
2023/05/16 11:16:30;;;;;;;;;;;;;;;10.99;100.00;97602.13;18561411;32;19956;-57
2023/05/16 11:26:59;;;;;;;;;;;;;;;10.92;100.00;97607.03;18560916;32;20381;-57
2023/05/16 11:37:03;;;;;;;;;;;;;;;10.89;100.00;97606.75;18560366;32;20005;-56
2023/05/16 11:47:08;;;;;;;;;;;;;;;10.93;100.00;97607.81;18560256;32;19983;-58
2023/05/16 11:57:11;;;;;;;;;;;;;;;10.93;100.00;97624.06;18561805;32;20325;-58
2023/05/16 12:07:15;;;;;;;;;;;;;;;10.87;100.00;97625.13;18572247;32;19948;-59
2023/05/16 12:17:21;;;;;;;;;;;;;;;10.84;100.00;97640.84;18571896;31;19957;-58
2023/05/16 12:27:25;;;;;;;;;;;;;;;10.74;100.00;97653.56;18571012;31;19997;-59
2023/05/16 12:37:27;;;;;;;;;;;;;;;10.81;100.00;97648.69;18570420;31;19953;-58
2023/05/16 12:47:37;;;;;;;;;;;;;;;10.76;100.00;97651.41;18570352;32;19956;-58
2023/05/16 12:57:42;;;;;;;;;;;;;;;10.73;100.00;97651.94;18555001;32;19983;-58
2023/05/16 13:07:45;;;;;;;;;;;;;;;10.74;100.00;97659.78;18568415;32;20393;-59
2023/05/16 13:17:48;;;;;;;;;;;;;;;10.63;100.00;97667.09;18554543;32;19960;-59
2023/05/16 13:27:52;;;;;;;;;;;;;;;10.61;100.00;97671.94;18567456;32;19960;-57
2023/05/16 13:37:56;;;;;;;;;;;;;;;10.63;100.00;97679.78;18566537;32;20015;-58
2023/05/16 13:48:01;;;;;;;;;;;;;;;10.56;100.00;97684.66;18566529;32;20020;-57
2023/05/16 13:58:04;;;;;;;;;;;;;;;10.51;100.00;97690.84;18565794;32;19948;-57
2023/05/16 14:08:08;;;;;;;;;;;;;;;10.54;100.00;97703.03;18565022;32;19953;-56
2023/05/16 14:18:12;;;;;;;;;;;;;;;10.49;100.00;97704.66;18550366;32;20234;-57
2023/05/16 14:28:15;;;;;;;;;;;;;;;10.53;100.00;97707.63;18563445;32;19972;-56
2023/05/16 14:38:19;;;;;;;;;;;;;;;10.39;100.00;97707.34;18563481;31;19997;-58
2023/05/16 14:48:23;;;;;;;;;;;;;;;10.31;100.00;97726.75;18548762;32;19975;-57
2023/05/16 14:58:27;;;;;;;;;;;;;;;10.11;100.00;97728.34;18547952;32;20302;-57
2023/05/16 15:08:31;;;;;;;;;;;;;;;10.05;100.00;97745.59;18561877;32;19993;-57
2023/05/16 15:18:35;;;;;;;;;;;;;;;10.04;100.00;97749.38;18561302;32;20272;-58
2023/05/16 15:28:39;;;;;;;;;;;;;;;9.95;100.00;97746.38;18560976;32;19960;-57
2023/05/16 15:38:44;;;;;;;;;;;;;;;9.93;100.00;97753.09;18558430;31;20281;-57
2023/05/16 15:48:48;;;;;;;;;;;;;;;9.81;100.00;97764.94;18573720;32;19992;-59
2023/05/16 15:58:51;;;;;;;;;;;;;;;9.78;100.00;97781.66;18546093;32;19955;-58
2023/05/16 16:08:55;;;;;;;;;;;;;;;9.73;100.00;97787.06;18572280;31;19979;-58
2023/05/16 16:18:58;;;;;;;;;;;;;;;9.69;100.00;97791.34;18571897;32;19979;-58
2023/05/16 16:29:02;;;;;;;;;;;;;;;9.66;100.00;97795.38;18544386;32;19965;-58
2023/05/16 16:39:06;;;;;;;;;;;;;;;9.60;100.00;97803.69;18570497;31;20316;-58
2023/05/16 16:49:10;;;;;;;;;;;;;;;9.56;100.00;97802.59;18569785;32;19967;-58
2023/05/16 16:59:15;;;;;;;;;;;;;;;9.52;100.00;97813.09;18569098;31;20003;-59
2023/05/16 17:09:18;;;;;;;;;;;;;;;9.52;100.00;97829.28;18568929;32;19969;-59
2023/05/16 17:19:21;;;;;;;;;;;;;;;9.45;100.00;97821.41;18553867;32;19968;-59
2023/05/16 17:29:26;;;;;;;;;;;;;;;9.49;100.00;97827.13;18567707;32;19976;-59
2023/05/16 17:39:29;;;;;;;;;;;;;;;9.48;100.00;97842.50;18566714;31;19960;-59
2023/05/16 17:49:31;;;;;;;;;;;;;;;9.45;100.00;97844.91;18566421;32;19957;-59
2023/05/16 17:59:37;;;;;;;;;;;;;;;9.42;100.00;97854.31;18551314;32;19996;-59
2023/05/16 18:09:40;;;;;;;;;;;;;;;9.53;100.00;97844.41;18564992;32;19965;-59
2023/05/16 18:19:44;;;;;;;;;;;;;;;9.62;100.00;97845.56;18564955;32;20336;-59
2023/05/16 18:29:48;;;;;;;;;;;;;;;9.64;100.00;97848.00;18563728;32;19971;-59
2023/05/16 18:39:52;;;;;;;;;;;;;;;9.74;100.00;97848.06;18548806;31;19956;-59
2023/05/16 18:49:56;;;;;;;;;;;;;;;9.74;100.00;97856.16;18562383;32;19971;-59
2023/05/16 18:59:58;;;;;;;;;;;;;;;9.63;100.00;97858.00;18562286;32;19952;-59
2023/05/16 19:10:05;;;;;;;;;;;;;;;9.46;100.00;97879.72;18547120;32;19978;-59
2023/05/16 19:20:09;;;;;;;;;;;;;;;9.27;100.00;97886.59;18561577;32;20284;-59
2023/05/16 19:30:13;;;;;;;;;;;;;;;9.11;100.00;97899.09;18546906;32;19984;-59
2023/05/16 19:40:17;;;;;;;;;;;;;;;8.93;100.00;97908.34;18560348;32;19957;-59
2023/05/16 19:50:32;;;;;;;;;;;;;;;8.78;100.00;97928.72;18561001;32;19971;-59
2023/05/16 20:00:38;;;;;;;;;;;;;;;8.65;100.00;97942.56;18533908;32;19997;-59
2023/05/16 20:10:43;;;;;;;;;;;;;;;8.55;100.00;97945.94;18545452;32;20007;-59
2023/05/16 20:20:47;;;;;;;;;;;;;;;8.41;100.00;97967.00;18550521;32;20385;-59
2023/05/16 20:30:52;;;;;;;;;;;;;;;8.28;100.00;97978.94;18571361;32;19953;-59
2023/05/16 20:40:58;;;;;;;;;;;;;;;8.18;100.00;97988.75;18570296;32;19949;-59
2023/05/16 20:51:05;;;;;;;;;;;;;;;8.01;100.00;97994.97;18570133;32;20335;-59
2023/05/16 21:01:08;;;;;;;;;;;;;;;7.97;100.00;97988.44;18555675;32;20253;-59
2023/05/16 21:11:12;;;;;;;;;;;;;;;7.96;100.00;97992.19;18568724;32;20000;-59
2023/05/16 21:21:15;;;;;;;;;;;;;;;7.93;100.00;98001.59;18568228;32;19968;-59
2023/05/16 21:31:18;;;;;;;;;;;;;;;7.91;100.00;98001.00;18567593;31;19960;-59
2023/05/16 21:41:22;;;;;;;;;;;;;;;7.88;100.00;98006.06;18566634;32;20005;-59
2023/05/16 21:51:27;;;;;;;;;;;;;;;7.81;100.00;98027.75;18566800;32;19956;-59
2023/05/16 22:01:30;;;;;;;;;;;;;;;7.81;100.00;98027.75;18565928;32;19971;-59
2023/05/16 22:11:34;;;;;;;;;;;;;;;7.85;100.00;98044.25;18565235;32;20014;-59
2023/05/16 22:21:37;;;;;;;;;;;;;;;7.88;100.00;98043.75;18564643;32;19953;-59
2023/05/16 22:31:41;;;;;;;;;;;;;;;7.91;100.00;98045.97;18549969;32;19971;-59
2023/05/16 22:41:45;;;;;;;;;;;;;;;7.96;100.00;98046.03;18562864;32;20038;-59
2023/05/16 22:51:48;;;;;;;;;;;;;;;8.02;100.00;98050.47;18562742;32;20353;-59
2023/05/16 23:01:52;;;;;;;;;;;;;;;8.05;100.00;98059.94;18548309;32;19956;-59
2023/05/16 23:11:55;;;;;;;;;;;;;;;8.05;100.00;98058.06;18561711;32;20060;-59
2023/05/16 23:21:58;;;;;;;;;;;;;;;8.03;100.00;98070.97;18561273;31;19953;-59
2023/05/16 23:32:03;;;;;;;;;;;;;;;8.02;100.00;98058.56;18560931;32;20009;-59
2023/05/16 23:42:05;;;;;;;;;;;;;;;8.04;100.00;98067.19;18560535;32;20305;-59
2023/05/16 23:52:08;;;;;;;;;;;;;;;7.98;100.00;98060.09;18560835;32;19979;-59
